sensor_id;sensor_type;location;lat;lon;timestamp;P1;durP1;ratioP1;P2;durP2;ratioP2
67721;SDS011;58309;45.292;11.820;2024-03-02T00:01:06;21.00;;;8.68;;
67721;SDS011;58309;45.292;11.820;2024-03-02T00:03:32;21.67;;;8.88;;
67721;SDS011;58309;45.292;11.820;2024-03-02T00:05:58;18.95;;;8.05;;
67721;SDS011;58309;45.292;11.820;2024-03-02T00:08:24;17.92;;;9.02;;
67721;SDS011;58309;45.292;11.820;2024-03-02T00:10:51;18.75;;;8.07;;
67721;SDS011;58309;45.292;11.820;2024-03-02T00:13:18;15.88;;;7.88;;
67721;SDS011;58309;45.292;11.820;2024-03-02T00:15:48;17.90;;;8.27;;
67721;SDS011;58309;45.292;11.820;2024-03-02T00:18:23;16.58;;;9.15;;
67721;SDS011;58309;45.292;11.820;2024-03-02T00:20:54;22.30;;;9.18;;
67721;SDS011;58309;45.292;11.820;2024-03-02T00:23:21;20.73;;;9.07;;
67721;SDS011;58309;45.292;11.820;2024-03-02T00:25:47;22.45;;;9.30;;
67721;SDS011;58309;45.292;11.820;2024-03-02T00:33:09;22.60;;;9.18;;
67721;SDS011;58309;45.292;11.820;2024-03-02T00:35:35;22.52;;;8.23;;
67721;SDS011;58309;45.292;11.820;2024-03-02T00:38:04;21.85;;;7.72;;
67721;SDS011;58309;45.292;11.820;2024-03-02T00:40:33;17.38;;;7.80;;
67721;SDS011;58309;45.292;11.820;2024-03-02T00:42:59;26.00;;;8.43;;
67721;SDS011;58309;45.292;11.820;2024-03-02T00:45:25;19.85;;;8.13;;
67721;SDS011;58309;45.292;11.820;2024-03-02T00:47:51;16.13;;;8.52;;
67721;SDS011;58309;45.292;11.820;2024-03-02T00:50:17;15.23;;;8.25;;
67721;SDS011;58309;45.292;11.820;2024-03-02T00:52:43;23.83;;;8.45;;
67721;SDS011;58309;45.292;11.820;2024-03-02T00:55:10;18.33;;;8.05;;
67721;SDS011;58309;45.292;11.820;2024-03-02T00:57:36;21.60;;;8.98;;
67721;SDS011;58309;45.292;11.820;2024-03-02T01:00:01;18.65;;;8.45;;
67721;SDS011;58309;45.292;11.820;2024-03-02T01:02:28;17.38;;;9.13;;
67721;SDS011;58309;45.292;11.820;2024-03-02T01:04:54;18.42;;;9.32;;
67721;SDS011;58309;45.292;11.820;2024-03-02T01:07:19;19.98;;;9.60;;
67721;SDS011;58309;45.292;11.820;2024-03-02T01:09:45;20.55;;;10.07;;
67721;SDS011;58309;45.292;11.820;2024-03-02T01:12:10;17.60;;;9.32;;
67721;SDS011;58309;45.292;11.820;2024-03-02T01:14:36;17.48;;;8.93;;
67721;SDS011;58309;45.292;11.820;2024-03-02T01:17:01;15.40;;;8.88;;
67721;SDS011;58309;45.292;11.820;2024-03-02T01:19:29;22.42;;;9.15;;
67721;SDS011;58309;45.292;11.820;2024-03-02T01:21:55;19.70;;;9.15;;
67721;SDS011;58309;45.292;11.820;2024-03-02T01:24:20;24.63;;;9.52;;
67721;SDS011;58309;45.292;11.820;2024-03-02T01:26:45;19.45;;;9.07;;
67721;SDS011;58309;45.292;11.820;2024-03-02T01:29:11;18.10;;;8.82;;
67721;SDS011;58309;45.292;11.820;2024-03-02T01:31:36;17.02;;;9.30;;
67721;SDS011;58309;45.292;11.820;2024-03-02T01:34:02;17.20;;;8.90;;
67721;SDS011;58309;45.292;11.820;2024-03-02T01:36:27;17.20;;;8.85;;
67721;SDS011;58309;45.292;11.820;2024-03-02T01:38:53;23.38;;;8.70;;
67721;SDS011;58309;45.292;11.820;2024-03-02T01:41:18;23.63;;;8.20;;
67721;SDS011;58309;45.292;11.820;2024-03-02T01:43:43;16.77;;;8.27;;
67721;SDS011;58309;45.292;11.820;2024-03-02T01:46:09;18.33;;;8.75;;
67721;SDS011;58309;45.292;11.820;2024-03-02T01:48:34;18.40;;;7.93;;
67721;SDS011;58309;45.292;11.820;2024-03-02T01:51:00;17.80;;;7.85;;
67721;SDS011;58309;45.292;11.820;2024-03-02T01:53:26;18.85;;;8.77;;
67721;SDS011;58309;45.292;11.820;2024-03-02T01:55:51;21.20;;;8.90;;
67721;SDS011;58309;45.292;11.820;2024-03-02T01:58:17;17.17;;;8.93;;
67721;SDS011;58309;45.292;11.820;2024-03-02T02:00:42;21.00;;;8.88;;
67721;SDS011;58309;45.292;11.820;2024-03-02T02:03:08;17.95;;;8.70;;
67721;SDS011;58309;45.292;11.820;2024-03-02T02:05:34;21.13;;;8.60;;
67721;SDS011;58309;45.292;11.820;2024-03-02T02:08:00;19.20;;;8.77;;
67721;SDS011;58309;45.292;11.820;2024-03-02T02:10:26;17.38;;;7.88;;
67721;SDS011;58309;45.292;11.820;2024-03-02T02:12:51;20.65;;;8.05;;
67721;SDS011;58309;45.292;11.820;2024-03-02T02:17:56;15.75;;;8.18;;
67721;SDS011;58309;45.292;11.820;2024-03-02T02:20:22;21.33;;;8.73;;
67721;SDS011;58309;45.292;11.820;2024-03-02T02:23:01;21.55;;;8.35;;
67721;SDS011;58309;45.292;11.820;2024-03-02T02:25:28;18.08;;;8.18;;
67721;SDS011;58309;45.292;11.820;2024-03-02T02:27:54;20.13;;;7.90;;
67721;SDS011;58309;45.292;11.820;2024-03-02T02:30:24;17.17;;;8.13;;
67721;SDS011;58309;45.292;11.820;2024-03-02T02:32:51;18.42;;;8.40;;
67721;SDS011;58309;45.292;11.820;2024-03-02T02:35:17;29.38;;;8.70;;
67721;SDS011;58309;45.292;11.820;2024-03-02T02:37:43;19.58;;;8.63;;
67721;SDS011;58309;45.292;11.820;2024-03-02T02:40:10;22.33;;;8.77;;
67721;SDS011;58309;45.292;11.820;2024-03-02T02:42:37;17.35;;;8.15;;
67721;SDS011;58309;45.292;11.820;2024-03-02T02:45:02;24.05;;;8.90;;
67721;SDS011;58309;45.292;11.820;2024-03-02T02:47:28;20.50;;;8.07;;
67721;SDS011;58309;45.292;11.820;2024-03-02T02:49:54;16.80;;;8.25;;
67721;SDS011;58309;45.292;11.820;2024-03-02T02:52:20;14.35;;;8.18;;
67721;SDS011;58309;45.292;11.820;2024-03-02T02:54:46;18.42;;;8.32;;
67721;SDS011;58309;45.292;11.820;2024-03-02T02:57:11;28.10;;;8.10;;
67721;SDS011;58309;45.292;11.820;2024-03-02T02:59:40;20.25;;;8.15;;
67721;SDS011;58309;45.292;11.820;2024-03-02T03:02:05;19.08;;;8.10;;
67721;SDS011;58309;45.292;11.820;2024-03-02T03:04:31;18.52;;;7.95;;
67721;SDS011;58309;45.292;11.820;2024-03-02T03:06:57;16.52;;;7.78;;
67721;SDS011;58309;45.292;11.820;2024-03-02T03:09:22;15.23;;;7.85;;
67721;SDS011;58309;45.292;11.820;2024-03-02T03:11:47;16.40;;;7.70;;
67721;SDS011;58309;45.292;11.820;2024-03-02T03:14:13;18.08;;;7.95;;
67721;SDS011;58309;45.292;11.820;2024-03-02T03:16:38;19.10;;;7.68;;
67721;SDS011;58309;45.292;11.820;2024-03-02T03:19:04;19.73;;;7.78;;
67721;SDS011;58309;45.292;11.820;2024-03-02T03:21:29;15.73;;;7.25;;
67721;SDS011;58309;45.292;11.820;2024-03-02T03:23:54;17.95;;;8.25;;
67721;SDS011;58309;45.292;11.820;2024-03-02T03:26:20;21.25;;;8.43;;
67721;SDS011;58309;45.292;11.820;2024-03-02T03:28:45;22.10;;;7.97;;
67721;SDS011;58309;45.292;11.820;2024-03-02T03:31:11;18.52;;;8.80;;
67721;SDS011;58309;45.292;11.820;2024-03-02T03:33:37;16.95;;;8.75;;
67721;SDS011;58309;45.292;11.820;2024-03-02T03:36:02;19.13;;;8.55;;
67721;SDS011;58309;45.292;11.820;2024-03-02T03:38:28;18.15;;;7.95;;
67721;SDS011;58309;45.292;11.820;2024-03-02T03:40:54;22.85;;;8.18;;
67721;SDS011;58309;45.292;11.820;2024-03-02T03:43:20;19.75;;;8.13;;
67721;SDS011;58309;45.292;11.820;2024-03-02T03:45:45;23.15;;;8.70;;
67721;SDS011;58309;45.292;11.820;2024-03-02T03:48:11;18.52;;;8.55;;
67721;SDS011;58309;45.292;11.820;2024-03-02T03:50:36;14.20;;;7.80;;
67721;SDS011;58309;45.292;11.820;2024-03-02T03:53:03;17.38;;;8.30;;
67721;SDS011;58309;45.292;11.820;2024-03-02T03:55:28;17.33;;;8.35;;
67721;SDS011;58309;45.292;11.820;2024-03-02T03:57:54;21.90;;;9.00;;
67721;SDS011;58309;45.292;11.820;2024-03-02T04:00:19;18.10;;;8.23;;
67721;SDS011;58309;45.292;11.820;2024-03-02T04:02:45;17.05;;;8.75;;
67721;SDS011;58309;45.292;11.820;2024-03-02T04:05:10;17.85;;;9.27;;
67721;SDS011;58309;45.292;11.820;2024-03-02T04:07:36;19.70;;;9.10;;
67721;SDS011;58309;45.292;11.820;2024-03-02T04:10:11;14.93;;;9.32;;
67721;SDS011;58309;45.292;11.820;2024-03-02T04:12:37;17.52;;;8.90;;
67721;SDS011;58309;45.292;11.820;2024-03-02T04:15:03;15.15;;;8.93;;
67721;SDS011;58309;45.292;11.820;2024-03-02T04:17:32;15.55;;;8.32;;
67721;SDS011;58309;45.292;11.820;2024-03-02T04:19:59;16.45;;;8.85;;
67721;SDS011;58309;45.292;11.820;2024-03-02T04:22:25;15.82;;;9.32;;
67721;SDS011;58309;45.292;11.820;2024-03-02T04:24:52;23.50;;;9.75;;
67721;SDS011;58309;45.292;11.820;2024-03-02T04:27:17;23.02;;;9.35;;
67721;SDS011;58309;45.292;11.820;2024-03-02T04:29:42;20.95;;;11.27;;
67721;SDS011;58309;45.292;11.820;2024-03-02T04:32:08;24.35;;;9.73;;
67721;SDS011;58309;45.292;11.820;2024-03-02T04:34:33;19.75;;;9.80;;
67721;SDS011;58309;45.292;11.820;2024-03-02T04:36:59;16.95;;;10.02;;
67721;SDS011;58309;45.292;11.820;2024-03-02T04:39:24;21.90;;;9.30;;
67721;SDS011;58309;45.292;11.820;2024-03-02T04:41:50;19.70;;;9.20;;
67721;SDS011;58309;45.292;11.820;2024-03-02T04:44:15;23.63;;;10.35;;
67721;SDS011;58309;45.292;11.820;2024-03-02T04:46:40;21.85;;;10.00;;
67721;SDS011;58309;45.292;11.820;2024-03-02T04:49:06;16.73;;;9.45;;
67721;SDS011;58309;45.292;11.820;2024-03-02T04:51:31;19.90;;;9.45;;
67721;SDS011;58309;45.292;11.820;2024-03-02T04:53:57;19.42;;;9.10;;
67721;SDS011;58309;45.292;11.820;2024-03-02T04:56:22;26.48;;;9.18;;
67721;SDS011;58309;45.292;11.820;2024-03-02T04:58:47;15.85;;;8.70;;
67721;SDS011;58309;45.292;11.820;2024-03-02T05:01:13;16.10;;;8.82;;
67721;SDS011;58309;45.292;11.820;2024-03-02T05:03:38;20.83;;;8.52;;
67721;SDS011;58309;45.292;11.820;2024-03-02T05:06:04;14.23;;;8.15;;
67721;SDS011;58309;45.292;11.820;2024-03-02T05:08:29;15.38;;;8.20;;
67721;SDS011;58309;45.292;11.820;2024-03-02T05:10:54;19.27;;;8.35;;
67721;SDS011;58309;45.292;11.820;2024-03-02T05:13:20;17.42;;;8.90;;
67721;SDS011;58309;45.292;11.820;2024-03-02T05:15:46;16.63;;;8.35;;
67721;SDS011;58309;45.292;11.820;2024-03-02T05:18:11;16.10;;;8.80;;
67721;SDS011;58309;45.292;11.820;2024-03-02T05:20:37;18.00;;;8.15;;
67721;SDS011;58309;45.292;11.820;2024-03-02T05:23:02;13.38;;;8.57;;
67721;SDS011;58309;45.292;11.820;2024-03-02T05:25:28;15.95;;;8.63;;
67721;SDS011;58309;45.292;11.820;2024-03-02T05:27:53;15.93;;;8.32;;
67721;SDS011;58309;45.292;11.820;2024-03-02T05:30:19;20.55;;;7.90;;
67721;SDS011;58309;45.292;11.820;2024-03-02T05:32:45;17.48;;;8.35;;
67721;SDS011;58309;45.292;11.820;2024-03-02T05:35:10;17.60;;;8.10;;
67721;SDS011;58309;45.292;11.820;2024-03-02T05:37:37;12.23;;;7.35;;
67721;SDS011;58309;45.292;11.820;2024-03-02T05:40:04;15.77;;;8.15;;
67721;SDS011;58309;45.292;11.820;2024-03-02T05:42:30;17.33;;;7.53;;
67721;SDS011;58309;45.292;11.820;2024-03-02T05:44:56;16.13;;;7.95;;
67721;SDS011;58309;45.292;11.820;2024-03-02T05:47:21;16.95;;;7.50;;
67721;SDS011;58309;45.292;11.820;2024-03-02T05:49:47;12.25;;;6.88;;
67721;SDS011;58309;45.292;11.820;2024-03-02T05:52:12;18.25;;;7.65;;
67721;SDS011;58309;45.292;11.820;2024-03-02T05:54:38;9.55;;;6.88;;
67721;SDS011;58309;45.292;11.820;2024-03-02T05:57:04;14.68;;;7.43;;
67721;SDS011;58309;45.292;11.820;2024-03-02T05:59:42;17.30;;;7.10;;
67721;SDS011;58309;45.292;11.820;2024-03-02T06:02:08;13.52;;;7.15;;
67721;SDS011;58309;45.292;11.820;2024-03-02T06:04:34;15.30;;;7.70;;
67721;SDS011;58309;45.292;11.820;2024-03-02T06:06:59;13.40;;;6.95;;
67721;SDS011;58309;45.292;11.820;2024-03-02T06:09:25;11.70;;;7.00;;
67721;SDS011;58309;45.292;11.820;2024-03-02T06:11:51;15.60;;;6.78;;
67721;SDS011;58309;45.292;11.820;2024-03-02T06:14:16;17.60;;;6.57;;
67721;SDS011;58309;45.292;11.820;2024-03-02T06:16:42;10.90;;;6.00;;
67721;SDS011;58309;45.292;11.820;2024-03-02T06:19:07;15.88;;;6.63;;
67721;SDS011;58309;45.292;11.820;2024-03-02T06:21:33;10.82;;;5.93;;
67721;SDS011;58309;45.292;11.820;2024-03-02T06:23:58;11.57;;;5.82;;
67721;SDS011;58309;45.292;11.820;2024-03-02T06:26:23;16.23;;;6.15;;
67721;SDS011;58309;45.292;11.820;2024-03-02T06:28:49;14.32;;;6.07;;
67721;SDS011;58309;45.292;11.820;2024-03-02T06:31:14;12.88;;;5.63;;
67721;SDS011;58309;45.292;11.820;2024-03-02T06:33:40;10.30;;;5.70;;
67721;SDS011;58309;45.292;11.820;2024-03-02T06:36:06;12.43;;;6.05;;
67721;SDS011;58309;45.292;11.820;2024-03-02T06:38:36;11.68;;;5.78;;
67721;SDS011;58309;45.292;11.820;2024-03-02T06:41:02;10.88;;;5.10;;
67721;SDS011;58309;45.292;11.820;2024-03-02T06:43:28;8.73;;;4.90;;
67721;SDS011;58309;45.292;11.820;2024-03-02T06:45:53;8.35;;;5.32;;
67721;SDS011;58309;45.292;11.820;2024-03-02T06:48:19;9.57;;;5.60;;
67721;SDS011;58309;45.292;11.820;2024-03-02T06:50:45;12.45;;;5.82;;
67721;SDS011;58309;45.292;11.820;2024-03-02T06:53:14;11.10;;;5.78;;
67721;SDS011;58309;45.292;11.820;2024-03-02T06:55:44;9.68;;;6.15;;
67721;SDS011;58309;45.292;11.820;2024-03-02T06:58:10;12.25;;;5.57;;
67721;SDS011;58309;45.292;11.820;2024-03-02T07:03:05;9.80;;;5.35;;
67721;SDS011;58309;45.292;11.820;2024-03-02T07:05:31;12.75;;;6.00;;
67721;SDS011;58309;45.292;11.820;2024-03-02T07:07:56;7.97;;;5.47;;
67721;SDS011;58309;45.292;11.820;2024-03-02T07:10:22;9.45;;;5.60;;
67721;SDS011;58309;45.292;11.820;2024-03-02T07:12:48;24.42;;;12.65;;
67721;SDS011;58309;45.292;11.820;2024-03-02T07:15:13;9.07;;;5.68;;
67721;SDS011;58309;45.292;11.820;2024-03-02T07:17:57;13.18;;;5.50;;
67721;SDS011;58309;45.292;11.820;2024-03-02T07:20:23;10.80;;;5.38;;
67721;SDS011;58309;45.292;11.820;2024-03-02T07:22:48;11.02;;;5.30;;
67721;SDS011;58309;45.292;11.820;2024-03-02T07:25:13;8.38;;;5.07;;
67721;SDS011;58309;45.292;11.820;2024-03-02T07:27:39;8.80;;;5.18;;
67721;SDS011;58309;45.292;11.820;2024-03-02T07:30:06;8.80;;;5.22;;
67721;SDS011;58309;45.292;11.820;2024-03-02T07:32:31;14.65;;;5.25;;
67721;SDS011;58309;45.292;11.820;2024-03-02T07:34:57;12.43;;;5.28;;
67721;SDS011;58309;45.292;11.820;2024-03-02T07:37:23;11.23;;;6.25;;
67721;SDS011;58309;45.292;11.820;2024-03-02T07:39:48;17.25;;;11.73;;
67721;SDS011;58309;45.292;11.820;2024-03-02T07:42:14;6.93;;;5.32;;
67721;SDS011;58309;45.292;11.820;2024-03-02T07:44:40;7.50;;;4.70;;
67721;SDS011;58309;45.292;11.820;2024-03-02T07:47:06;7.97;;;5.05;;
67721;SDS011;58309;45.292;11.820;2024-03-02T07:49:31;7.53;;;4.65;;
67721;SDS011;58309;45.292;11.820;2024-03-02T07:51:57;12.25;;;5.47;;
67721;SDS011;58309;45.292;11.820;2024-03-02T07:54:22;12.02;;;5.28;;
67721;SDS011;58309;45.292;11.820;2024-03-02T07:56:48;9.05;;;4.53;;
67721;SDS011;58309;45.292;11.820;2024-03-02T07:59:13;13.65;;;5.75;;
67721;SDS011;58309;45.292;11.820;2024-03-02T08:01:39;11.10;;;4.80;;
67721;SDS011;58309;45.292;11.820;2024-03-02T08:04:04;8.35;;;4.75;;
67721;SDS011;58309;45.292;11.820;2024-03-02T08:06:30;12.93;;;5.30;;
67721;SDS011;58309;45.292;11.820;2024-03-02T08:08:56;9.65;;;5.10;;
67721;SDS011;58309;45.292;11.820;2024-03-02T08:11:23;8.05;;;5.03;;
67721;SDS011;58309;45.292;11.820;2024-03-02T08:13:48;10.93;;;5.35;;
67721;SDS011;58309;45.292;11.820;2024-03-02T08:16:15;16.23;;;5.32;;
67721;SDS011;58309;45.292;11.820;2024-03-02T08:18:41;10.73;;;5.53;;
67721;SDS011;58309;45.292;11.820;2024-03-02T08:21:07;9.57;;;5.25;;
67721;SDS011;58309;45.292;11.820;2024-03-02T08:23:34;16.20;;;6.07;;
67721;SDS011;58309;45.292;11.820;2024-03-02T08:26:00;6.55;;;5.07;;
67721;SDS011;58309;45.292;11.820;2024-03-02T08:28:25;9.68;;;5.53;;
67721;SDS011;58309;45.292;11.820;2024-03-02T08:30:51;8.13;;;5.25;;
67721;SDS011;58309;45.292;11.820;2024-03-02T08:33:16;10.73;;;5.40;;
67721;SDS011;58309;45.292;11.820;2024-03-02T08:35:42;12.52;;;5.50;;
67721;SDS011;58309;45.292;11.820;2024-03-02T08:38:07;9.82;;;5.57;;
67721;SDS011;58309;45.292;11.820;2024-03-02T08:40:33;8.60;;;5.35;;
67721;SDS011;58309;45.292;11.820;2024-03-02T08:42:59;11.90;;;5.85;;
67721;SDS011;58309;45.292;11.820;2024-03-02T08:45:24;10.00;;;5.10;;
67721;SDS011;58309;45.292;11.820;2024-03-02T08:47:50;10.98;;;5.28;;
67721;SDS011;58309;45.292;11.820;2024-03-02T08:50:15;15.20;;;6.47;;
67721;SDS011;58309;45.292;11.820;2024-03-02T08:52:41;11.68;;;6.15;;
67721;SDS011;58309;45.292;11.820;2024-03-02T08:55:07;10.57;;;5.40;;
67721;SDS011;58309;45.292;11.820;2024-03-02T08:57:33;8.18;;;5.72;;
67721;SDS011;58309;45.292;11.820;2024-03-02T08:59:59;12.77;;;5.93;;
67721;SDS011;58309;45.292;11.820;2024-03-02T09:02:25;13.80;;;6.30;;
67721;SDS011;58309;45.292;11.820;2024-03-02T09:04:50;12.52;;;6.20;;
67721;SDS011;58309;45.292;11.820;2024-03-02T09:07:16;14.40;;;7.03;;
67721;SDS011;58309;45.292;11.820;2024-03-02T09:09:41;15.77;;;7.47;;
67721;SDS011;58309;45.292;11.820;2024-03-02T09:12:07;11.93;;;6.53;;
67721;SDS011;58309;45.292;11.820;2024-03-02T09:14:32;20.77;;;7.13;;
67721;SDS011;58309;45.292;11.820;2024-03-02T09:16:58;12.90;;;7.25;;
67721;SDS011;58309;45.292;11.820;2024-03-02T09:19:24;12.10;;;6.82;;
67721;SDS011;58309;45.292;11.820;2024-03-02T09:21:49;14.70;;;7.88;;
67721;SDS011;58309;45.292;11.820;2024-03-02T09:24:15;14.75;;;8.00;;
67721;SDS011;58309;45.292;11.820;2024-03-02T09:26:41;12.95;;;8.15;;
67721;SDS011;58309;45.292;11.820;2024-03-02T09:29:06;11.40;;;8.13;;
67721;SDS011;58309;45.292;11.820;2024-03-02T09:31:31;13.45;;;7.85;;
67721;SDS011;58309;45.292;11.820;2024-03-02T09:33:57;14.05;;;7.78;;
67721;SDS011;58309;45.292;11.820;2024-03-02T09:36:22;15.38;;;8.43;;
67721;SDS011;58309;45.292;11.820;2024-03-02T09:38:48;16.95;;;8.40;;
67721;SDS011;58309;45.292;11.820;2024-03-02T09:41:16;15.23;;;9.68;;
67721;SDS011;58309;45.292;11.820;2024-03-02T09:43:42;15.50;;;8.35;;
67721;SDS011;58309;45.292;11.820;2024-03-02T09:46:10;17.48;;;8.20;;
67721;SDS011;58309;45.292;11.820;2024-03-02T09:48:36;13.48;;;8.13;;
67721;SDS011;58309;45.292;11.820;2024-03-02T09:51:02;10.43;;;7.05;;
67721;SDS011;58309;45.292;11.820;2024-03-02T09:53:31;10.90;;;7.35;;
67721;SDS011;58309;45.292;11.820;2024-03-02T09:55:58;9.70;;;6.45;;
67721;SDS011;58309;45.292;11.820;2024-03-02T09:58:24;7.63;;;6.10;;
67721;SDS011;58309;45.292;11.820;2024-03-02T10:00:50;8.18;;;5.38;;
67721;SDS011;58309;45.292;11.820;2024-03-02T10:03:15;10.57;;;5.55;;
67721;SDS011;58309;45.292;11.820;2024-03-02T10:05:43;10.25;;;4.80;;
67721;SDS011;58309;45.292;11.820;2024-03-02T10:08:09;6.38;;;4.57;;
67721;SDS011;58309;45.292;11.820;2024-03-02T10:10:35;6.82;;;4.78;;
67721;SDS011;58309;45.292;11.820;2024-03-02T10:13:05;5.07;;;4.15;;
67721;SDS011;58309;45.292;11.820;2024-03-02T10:15:32;7.90;;;4.35;;
67721;SDS011;58309;45.292;11.820;2024-03-02T10:17:58;7.78;;;4.20;;
67721;SDS011;58309;45.292;11.820;2024-03-02T10:20:24;7.53;;;4.68;;
67721;SDS011;58309;45.292;11.820;2024-03-02T10:22:51;10.13;;;5.20;;
67721;SDS011;58309;45.292;11.820;2024-03-02T10:25:32;11.05;;;5.15;;
67721;SDS011;58309;45.292;11.820;2024-03-02T10:27:58;8.18;;;4.10;;
67721;SDS011;58309;45.292;11.820;2024-03-02T10:30:27;5.78;;;3.90;;
67721;SDS011;58309;45.292;11.820;2024-03-02T10:32:53;7.20;;;4.15;;
67721;SDS011;58309;45.292;11.820;2024-03-02T10:35:20;7.10;;;4.60;;
67721;SDS011;58309;45.292;11.820;2024-03-02T10:37:47;6.68;;;3.90;;
67721;SDS011;58309;45.292;11.820;2024-03-02T10:40:13;5.90;;;4.47;;
67721;SDS011;58309;45.292;11.820;2024-03-02T10:42:39;5.68;;;4.50;;
67721;SDS011;58309;45.292;11.820;2024-03-02T10:45:07;10.65;;;4.90;;
67721;SDS011;58309;45.292;11.820;2024-03-02T10:47:35;6.82;;;4.50;;
67721;SDS011;58309;45.292;11.820;2024-03-02T10:50:03;4.78;;;3.40;;
67721;SDS011;58309;45.292;11.820;2024-03-02T10:52:33;6.93;;;3.35;;
67721;SDS011;58309;45.292;11.820;2024-03-02T10:55:02;5.07;;;3.60;;
67721;SDS011;58309;45.292;11.820;2024-03-02T10:57:33;5.60;;;4.05;;
67721;SDS011;58309;45.292;11.820;2024-03-02T11:00:18;6.97;;;4.13;;
67721;SDS011;58309;45.292;11.820;2024-03-02T11:02:55;7.47;;;3.72;;
67721;SDS011;58309;45.292;11.820;2024-03-02T11:05:43;7.65;;;3.67;;
67721;SDS011;58309;45.292;11.820;2024-03-02T11:08:12;8.38;;;3.70;;
67721;SDS011;58309;45.292;11.820;2024-03-02T11:10:42;7.20;;;4.05;;
67721;SDS011;58309;45.292;11.820;2024-03-02T11:13:16;8.07;;;4.30;;
67721;SDS011;58309;45.292;11.820;2024-03-02T11:15:46;9.45;;;4.72;;
67721;SDS011;58309;45.292;11.820;2024-03-02T11:18:12;5.05;;;4.30;;
67721;SDS011;58309;45.292;11.820;2024-03-02T11:20:39;8.10;;;6.18;;
67721;SDS011;58309;45.292;11.820;2024-03-02T11:23:06;9.60;;;6.60;;
67721;SDS011;58309;45.292;11.820;2024-03-02T11:25:32;10.77;;;4.90;;
67721;SDS011;58309;45.292;11.820;2024-03-02T11:27:58;7.68;;;4.60;;
67721;SDS011;58309;45.292;11.820;2024-03-02T11:35:26;10.50;;;4.85;;
67721;SDS011;58309;45.292;11.820;2024-03-02T11:37:53;8.82;;;5.80;;
67721;SDS011;58309;45.292;11.820;2024-03-02T11:40:22;8.40;;;6.20;;
67721;SDS011;58309;45.292;11.820;2024-03-02T11:42:49;8.93;;;6.28;;
67721;SDS011;58309;45.292;11.820;2024-03-02T11:45:33;10.25;;;5.45;;
67721;SDS011;58309;45.292;11.820;2024-03-02T11:48:04;15.15;;;6.95;;
67721;SDS011;58309;45.292;11.820;2024-03-02T11:50:34;13.00;;;8.20;;
67721;SDS011;58309;45.292;11.820;2024-03-02T11:53:06;12.63;;;8.93;;
67721;SDS011;58309;45.292;11.820;2024-03-02T11:55:36;12.93;;;8.93;;
67721;SDS011;58309;45.292;11.820;2024-03-02T11:58:03;14.80;;;9.48;;
67721;SDS011;58309;45.292;11.820;2024-03-02T12:00:29;15.20;;;9.18;;
67721;SDS011;58309;45.292;11.820;2024-03-02T12:02:59;15.88;;;9.15;;
67721;SDS011;58309;45.292;11.820;2024-03-02T12:05:26;15.25;;;7.85;;
67721;SDS011;58309;45.292;11.820;2024-03-02T12:08:02;12.10;;;7.82;;
67721;SDS011;58309;45.292;11.820;2024-03-02T12:10:29;13.80;;;7.05;;
67721;SDS011;58309;45.292;11.820;2024-03-02T12:12:58;11.95;;;8.27;;
67721;SDS011;58309;45.292;11.820;2024-03-02T12:15:29;11.30;;;7.45;;
67721;SDS011;58309;45.292;11.820;2024-03-02T12:17:56;13.68;;;8.10;;
67721;SDS011;58309;45.292;11.820;2024-03-02T12:20:22;8.75;;;6.95;;
67721;SDS011;58309;45.292;11.820;2024-03-02T12:22:52;9.85;;;6.35;;
67721;SDS011;58309;45.292;11.820;2024-03-02T12:25:22;9.50;;;6.20;;
67721;SDS011;58309;45.292;11.820;2024-03-02T12:27:49;13.13;;;7.30;;
67721;SDS011;58309;45.292;11.820;2024-03-02T12:30:16;8.65;;;6.50;;
67721;SDS011;58309;45.292;11.820;2024-03-02T12:32:42;8.25;;;5.78;;
67721;SDS011;58309;45.292;11.820;2024-03-02T12:35:10;8.43;;;5.95;;
67721;SDS011;58309;45.292;11.820;2024-03-02T12:37:58;7.93;;;5.20;;
67721;SDS011;58309;45.292;11.820;2024-03-02T12:40:23;11.07;;;6.13;;
67721;SDS011;58309;45.292;11.820;2024-03-02T12:42:49;7.90;;;5.68;;
67721;SDS011;58309;45.292;11.820;2024-03-02T12:45:15;13.32;;;6.65;;
67721;SDS011;58309;45.292;11.820;2024-03-02T12:47:41;8.25;;;5.18;;
67721;SDS011;58309;45.292;11.820;2024-03-02T12:50:08;7.28;;;5.63;;
67721;SDS011;58309;45.292;11.820;2024-03-02T12:52:34;9.05;;;5.63;;
67721;SDS011;58309;45.292;11.820;2024-03-02T12:55:00;9.25;;;6.30;;
67721;SDS011;58309;45.292;11.820;2024-03-02T12:57:29;7.43;;;6.18;;
67721;SDS011;58309;45.292;11.820;2024-03-02T12:59:58;6.10;;;4.93;;
67721;SDS011;58309;45.292;11.820;2024-03-02T13:02:34;7.93;;;5.18;;
67721;SDS011;58309;45.292;11.820;2024-03-02T13:05:00;8.65;;;4.90;;
67721;SDS011;58309;45.292;11.820;2024-03-02T13:07:26;7.32;;;5.45;;
67721;SDS011;58309;45.292;11.820;2024-03-02T13:09:55;6.10;;;4.80;;
67721;SDS011;58309;45.292;11.820;2024-03-02T13:12:22;6.47;;;5.13;;
67721;SDS011;58309;45.292;11.820;2024-03-02T13:14:51;6.53;;;5.43;;
67721;SDS011;58309;45.292;11.820;2024-03-02T13:17:18;7.35;;;4.03;;
67721;SDS011;58309;45.292;11.820;2024-03-02T13:19:51;4.13;;;3.72;;
67721;SDS011;58309;45.292;11.820;2024-03-02T13:22:25;5.15;;;2.97;;
67721;SDS011;58309;45.292;11.820;2024-03-02T13:24:51;4.85;;;3.40;;
67721;SDS011;58309;45.292;11.820;2024-03-02T13:27:19;4.85;;;2.95;;
67721;SDS011;58309;45.292;11.820;2024-03-02T13:29:47;5.47;;;3.28;;
67721;SDS011;58309;45.292;11.820;2024-03-02T13:32:13;3.00;;;2.78;;
67721;SDS011;58309;45.292;11.820;2024-03-02T13:34:40;3.95;;;3.00;;
67721;SDS011;58309;45.292;11.820;2024-03-02T13:37:05;7.20;;;4.50;;
67721;SDS011;58309;45.292;11.820;2024-03-02T13:39:31;5.78;;;4.40;;
67721;SDS011;58309;45.292;11.820;2024-03-02T13:42:00;6.57;;;4.50;;
67721;SDS011;58309;45.292;11.820;2024-03-02T13:44:31;6.57;;;4.80;;
67721;SDS011;58309;45.292;11.820;2024-03-02T13:46:56;7.03;;;4.20;;
67721;SDS011;58309;45.292;11.820;2024-03-02T13:49:23;7.65;;;4.32;;
67721;SDS011;58309;45.292;11.820;2024-03-02T13:51:49;5.63;;;4.47;;
67721;SDS011;58309;45.292;11.820;2024-03-02T13:54:14;6.57;;;4.68;;
67721;SDS011;58309;45.292;11.820;2024-03-02T13:56:40;4.40;;;3.85;;
67721;SDS011;58309;45.292;11.820;2024-03-02T13:59:06;6.55;;;4.50;;
67721;SDS011;58309;45.292;11.820;2024-03-02T14:01:33;6.60;;;3.97;;
67721;SDS011;58309;45.292;11.820;2024-03-02T14:03:58;9.18;;;5.97;;
67721;SDS011;58309;45.292;11.820;2024-03-02T14:06:24;6.65;;;4.80;;
67721;SDS011;58309;45.292;11.820;2024-03-02T14:08:52;4.70;;;4.00;;
67721;SDS011;58309;45.292;11.820;2024-03-02T14:11:17;5.35;;;3.65;;
67721;SDS011;58309;45.292;11.820;2024-03-02T14:13:43;4.20;;;3.00;;
67721;SDS011;58309;45.292;11.820;2024-03-02T14:16:12;4.82;;;4.32;;
67721;SDS011;58309;45.292;11.820;2024-03-02T14:18:37;3.10;;;2.80;;
67721;SDS011;58309;45.292;11.820;2024-03-02T14:21:03;3.50;;;2.80;;
67721;SDS011;58309;45.292;11.820;2024-03-02T14:23:28;2.55;;;2.20;;
67721;SDS011;58309;45.292;11.820;2024-03-02T14:25:54;3.08;;;2.35;;
67721;SDS011;58309;45.292;11.820;2024-03-02T14:28:20;2.47;;;2.28;;
67721;SDS011;58309;45.292;11.820;2024-03-02T14:30:46;3.17;;;2.22;;
67721;SDS011;58309;45.292;11.820;2024-03-02T14:33:11;2.75;;;2.50;;
67721;SDS011;58309;45.292;11.820;2024-03-02T14:35:38;5.78;;;3.10;;
67721;SDS011;58309;45.292;11.820;2024-03-02T14:38:04;5.32;;;2.88;;